Date,TemperatureHighF,TemperatureAvgF,TemperatureLowF,DewpointHighF,DewpointAvgF,DewpointLowF,HumidityHigh,HumidityAvg,HumidityLow,PressureMaxIn,PressureMinIn,WindSpeedMaxMPH,WindSpeedAvgMPH,GustSpeedMaxMPH,PrecipitationSumIn
2013-11-1,83.5,69.1,62.4,68.4,42.6,9.2,81,44,6,29.30,29.09,5,1,5,0.00
2013-11-2,77.7,58.9,47.3,46.6,35.1,31.8,65,44,22,29.56,29.30,2,0,4,0.00
2013-11-3,73.8,57.5,38.5,52.4,40.0,33.2,91,56,33,29.47,29.21,7,2,10,0.00
2013-11-4,65.3,63.2,61.7,62.6,57.9,52.4,93,83,67,29.27,29.15,8,2,11,0.04
2013-11-5,77.5,73.7,63.7,66.8,65.7,61.6,97,77,68,29.21,29.09,6,2,9,0.00
2013-11-6,73.4,61.2,59.2,66.8,52.3,45.6,84,73,60,29.44,29.12,4,1,7,0.00
2013-11-7,64.2,55.9,38.8,45.6,38.4,35.3,88,56,38,29.68,29.44,2,0,4,0.00
2013-11-8,63.0,61.3,59.9,38.7,38.4,38.3,45,43,40,29.62,29.44,3,0,4,0.00
2013-11-11,65.3,64.0,59.9,54.9,52.3,38.5,71,66,45,29.44,29.39,2,0,2,0.00
2013-11-12,63.9,59.6,46.8,54.3,47.6,27.6,71,65,47,29.86,29.39,2,1,4,0.00
2013-11-13,57.6,50.7,42.6,30.2,27.4,25.1,51,41,35,29.86,29.62,3,0,6,0.00
2013-11-14,66.0,56.0,31.1,43.9,37.1,24.7,84,51,33,29.65,29.24,7,2,11,0.00
2013-11-15,82.8,64.5,51.3,59.1,52.4,43.9,92,67,41,29.27,29.03,5,1,7,0.00
2013-11-16,77.5,70.7,61.5,69.0,63.7,56.5,90,79,64,29.12,28.94,5,2,6,0.00
2013-11-17,93.6,73.9,57.0,75.0,58.5,44.3,97,64,27,29.18,28.94,4,2,6,0.00
2013-11-18,79.5,64.3,51.6,56.1,50.2,45.0,83,62,43,29.36,29.18,3,0,4,0.00
2013-11-19,76.5,62.7,49.1,53.0,47.2,43.6,83,59,36,29.39,29.18,6,2,8,0.00
2013-11-20,74.1,65.4,59.2,64.8,58.7,51.4,96,79,68,29.21,29.06,6,3,10,0.00
2013-11-21,77.7,70.6,66.0,71.6,67.5,64.0,98,90,76,29.30,29.12,6,1,10,0.00
2013-11-22,67.8,39.7,34.0,65.4,38.5,33.0,98,95,86,29.65,29.27,5,2,10,0.95
2013-11-23,40.3,37.7,35.2,39.1,36.5,34.0,98,95,89,29.74,29.59,5,2,10,0.00
2013-11-24,39.9,37.4,34.0,38.6,33.2,30.0,95,85,75,29.74,29.53,5,1,10,0.25
2013-11-25,41.0,37.6,34.0,39.9,36.2,31.9,98,95,88,29.56,29.30,5,1,8,0.34
2013-11-26,52.9,41.7,36.5,38.9,32.7,25.2,90,72,47,29.59,29.36,6,2,12,0.00
2013-11-27,54.5,40.6,31.3,30.7,25.1,20.9,73,55,36,29.71,29.53,4,1,6,0.00
2013-11-28,57.7,41.2,30.4,36.1,29.3,23.4,87,65,40,29.62,29.47,4,1,7,0.00
2013-11-29,62.4,46.3,28.6,50.3,39.1,23.6,92,77,56,29.71,29.53,4,1,8,0.00
2013-11-30,66.0,56.4,46.4,56.0,50.3,41.8,95,80,69,29.56,29.36,4,1,7,0.00